Time;durP1;ratioP1;P1;durP2;ratioP2;P2;SDS_P1;SDS_P2;PMS_P1;PMS_P2;Temp;Humidity;BMP_temperature;BMP_pressure;BME280_temperature;BME280_humidity;BME280_pressure;Samples;Min_cycle;Max_cycle;Signal;HPM_P1;HPM_P2
2022/05/05 00:01:22;;;;;;;10.18;4.53;;;;;;;7.32;80.04;102014.63;5062393;28;20028;-71
2022/05/05 00:03:48;;;;;;;5.43;3.80;;;;;;;7.33;80.31;102011.97;5063313;28;20366;-71
2022/05/05 00:06:13;;;;;;;6.28;4.05;;;;;;;7.33;80.26;102017.25;5065938;28;20086;-71
2022/05/05 00:08:39;;;;;;;7.90;3.88;;;;;;;7.29;80.34;102018.16;5066970;28;20388;-71
2022/05/05 00:16:32;;;;;;;5.10;3.88;;;;;;;7.17;79.61;102019.19;5066140;28;20503;-71
2022/05/05 00:18:58;;;;;;;6.85;4.15;;;;;;;7.14;79.66;102013.09;5067312;28;20035;-70
2022/05/05 00:21:24;;;;;;;6.32;3.85;;;;;;;7.10;79.90;102016.66;5049232;28;20040;-70
2022/05/05 00:23:49;;;;;;;5.65;4.00;;;;;;;7.06;79.78;102023.72;5049360;28;20052;-70
2022/05/05 00:26:15;;;;;;;7.32;4.57;;;;;;;7.03;79.95;102029.03;5067305;28;20035;-70
2022/05/05 00:28:40;;;;;;;6.95;4.20;;;;;;;6.99;80.39;102028.19;5066748;28;20949;-70
2022/05/05 00:31:06;;;;;;;7.32;4.68;;;;;;;6.96;80.72;102032.63;5066461;28;20032;-70
2022/05/05 00:33:32;;;;;;;7.45;4.22;;;;;;;6.91;80.77;102019.47;5065148;28;20043;-70
2022/05/05 00:35:57;;;;;;;9.93;4.63;;;;;;;6.87;80.41;102026.53;5066522;28;20067;-70
2022/05/05 00:38:22;;;;;;;7.38;4.60;;;;;;;6.86;81.24;102027.44;5066544;28;20074;-70
2022/05/05 00:40:48;;;;;;;7.13;4.43;;;;;;;6.83;81.79;102026.59;5066518;28;20476;-70
2022/05/05 00:43:14;;;;;;;6.65;4.75;;;;;;;6.81;81.55;102028.38;5066787;28;20048;-70
2022/05/05 00:45:39;;;;;;;10.38;5.03;;;;;;;6.75;81.67;102018.81;5066099;28;20039;-71
2022/05/05 00:48:06;;;;;;;6.60;4.93;;;;;;;6.71;81.35;102024.97;5066611;28;20032;-71
2022/05/05 00:50:33;;;;;;;7.07;4.85;;;;;;;6.68;81.21;102028.50;5049277;28;20044;-71
2022/05/05 00:52:59;;;;;;;7.95;4.60;;;;;;;6.65;81.66;102026.78;5033976;28;20364;-71
2022/05/05 00:55:24;;;;;;;8.82;4.70;;;;;;;6.62;81.49;102029.44;5066414;28;20047;-70
2022/05/05 00:57:50;;;;;;;11.48;5.35;;;;;;;6.61;81.56;102032.09;5066682;28;20028;-71
2022/05/05 01:00:16;;;;;;;7.88;4.75;;;;;;;6.60;81.97;102028.56;5065417;28;20507;-68
2022/05/05 01:02:41;;;;;;;8.50;5.30;;;;;;;6.57;82.13;102027.72;5053226;28;20048;-70
2022/05/05 01:05:07;;;;;;;9.07;5.15;;;;;;;6.53;82.00;102029.53;5048449;28;20506;-70
2022/05/05 01:07:33;;;;;;;7.22;4.93;;;;;;;6.49;82.36;102030.44;5047186;28;20039;-70
2022/05/05 01:09:59;;;;;;;7.55;4.88;;;;;;;6.46;82.70;102028.72;5047871;28;20046;-70
2022/05/05 01:12:29;;;;;;;6.90;4.55;;;;;;;6.43;82.85;102028.72;5031148;28;20036;-71
2022/05/05 01:15:01;;;;;;;8.18;5.50;;;;;;;6.42;82.85;102031.41;5049440;28;20033;-71
2022/05/05 01:17:27;;;;;;;7.18;4.53;;;;;;;6.39;83.17;102025.25;5058387;28;20095;-71
2022/05/05 01:19:52;;;;;;;9.20;4.47;;;;;;;6.41;83.22;102041.03;5065954;28;20261;-71
2022/05/05 01:22:18;;;;;;;7.72;4.97;;;;;;;6.40;83.11;102036.66;5046065;28;20086;-71
2022/05/05 01:30:13;;;;;;;6.65;4.43;;;;;;;6.43;83.67;102033.13;5066838;28;20024;-71
2022/05/05 01:32:38;;;;;;;8.75;4.75;;;;;;;6.44;83.78;102034.88;5066324;28;20052;-71
2022/05/05 01:35:04;;;;;;;8.75;4.60;;;;;;;6.45;83.37;102033.97;5047879;28;20033;-71
2022/05/05 01:37:30;;;;;;;7.47;4.40;;;;;;;6.44;83.55;102030.50;5048104;28;20028;-71
2022/05/05 01:39:56;;;;;;;7.03;4.93;;;;;;;6.43;83.62;102034.00;5065516;28;20032;-71
2022/05/05 01:42:22;;;;;;;12.48;5.43;;;;;;;6.44;83.56;102037.50;5046421;28;20089;-71
2022/05/05 01:44:48;;;;;;;9.93;4.82;;;;;;;6.43;84.24;102041.03;5065085;28;20037;-71
2022/05/05 01:47:13;;;;;;;7.55;5.22;;;;;;;6.41;84.03;102038.41;5042639;28;20043;-70
2022/05/05 01:49:39;;;;;;;7.47;4.78;;;;;;;6.41;84.35;102048.03;5064045;28;20028;-71
2022/05/05 01:52:09;;;;;;;10.82;5.38;;;;;;;6.38;84.32;102043.72;5036015;28;20036;-71
2022/05/05 01:54:34;;;;;;;9.60;4.80;;;;;;;6.35;84.08;102043.72;5065600;28;20028;-71
2022/05/05 01:57:00;;;;;;;8.43;5.05;;;;;;;6.33;84.50;102042.88;5065622;28;20138;-72
2022/05/05 01:59:25;;;;;;;10.63;4.90;;;;;;;6.32;84.58;102047.25;5062285;28;20574;-71
2022/05/05 02:01:51;;;;;;;8.40;5.38;;;;;;;6.30;84.64;102049.03;5046406;28;20754;-71
2022/05/05 02:04:16;;;;;;;7.97;4.88;;;;;;;6.29;84.56;102044.66;5064357;28;20071;-71
2022/05/05 02:06:42;;;;;;;8.15;4.75;;;;;;;6.30;84.57;102054.28;5062835;28;20728;-71
2022/05/05 02:09:07;;;;;;;8.75;4.80;;;;;;;6.31;84.79;102056.03;5064618;28;20028;-71
2022/05/05 02:11:33;;;;;;;7.80;5.00;;;;;;;6.32;84.14;102057.75;5048896;28;20152;-71
2022/05/05 02:13:59;;;;;;;9.00;5.20;;;;;;;6.30;84.37;102054.28;5044915;28;20781;-70
2022/05/05 02:16:24;;;;;;;7.70;4.53;;;;;;;6.29;84.45;102060.44;5047065;28;20032;-71
2022/05/05 02:18:50;;;;;;;8.48;5.07;;;;;;;6.28;84.38;102058.69;5064808;28;20643;-71
2022/05/05 02:21:16;;;;;;;7.97;5.00;;;;;;;6.28;84.19;102055.19;5046850;28;20052;-71
2022/05/05 02:23:42;;;;;;;8.43;4.88;;;;;;;6.25;84.58;102054.31;5063610;28;20048;-71
2022/05/05 02:26:07;;;;;;;12.73;5.15;;;;;;;6.26;84.21;102057.81;5046734;28;20028;-71
2022/05/05 02:28:33;;;;;;;8.10;4.57;;;;;;;6.26;84.82;102057.81;5045785;28;20128;-72
2022/05/05 02:30:58;;;;;;;9.75;5.55;;;;;;;6.25;84.18;102056.06;5063866;28;20040;-72
2022/05/05 02:33:24;;;;;;;7.05;4.50;;;;;;;6.23;84.73;102060.47;5046152;28;20728;-71
2022/05/05 02:38:42;;;;;;;8.77;4.93;;;;;;;6.22;85.00;102053.47;5046872;28;20032;-72
2022/05/05 02:38:55;;;;;;;7.53;4.63;;;;;;;6.19;85.50;102050.84;5063179;28;20036;-72
2022/05/05 02:41:20;;;;;;;8.95;5.30;;;;;;;6.17;84.99;102057.91;5033855;28;20048;-71
2022/05/05 02:43:46;;;;;;;8.48;4.75;;;;;;;6.14;84.64;102053.53;5042502;28;20516;-72
2022/05/05 02:46:11;;;;;;;6.43;4.72;;;;;;;6.13;85.06;102056.16;5032382;28;20584;-71
2022/05/05 02:48:37;;;;;;;6.80;4.63;;;;;;;6.11;85.17;102061.44;5045214;28;20332;-71
2022/05/05 02:51:02;;;;;;;9.32;5.05;;;;;;;6.08;84.84;102059.72;5034220;28;20491;-71
2022/05/05 02:56:12;;;;;;;8.32;4.50;;;;;;;6.05;85.45;102059.72;5049187;28;20051;-71
2022/05/05 02:58:38;;;;;;;8.93;4.78;;;;;;;6.04;85.29;102057.13;5062309;28;20032;-71
2022/05/05 03:01:03;;;;;;;6.60;4.22;;;;;;;6.01;84.89;102057.09;5046394;28;20039;-71
2022/05/05 03:03:29;;;;;;;9.15;4.88;;;;;;;5.98;85.39;102066.75;5045401;28;20059;-71
2022/05/05 03:05:54;;;;;;;8.30;5.00;;;;;;;5.98;84.94;102065.88;5027610;28;20064;-71
2022/05/05 03:08:20;;;;;;;8.00;4.63;;;;;;;5.96;85.79;102060.63;5037892;28;20024;-72
2022/05/05 03:10:45;;;;;;;6.78;4.70;;;;;;;5.95;85.98;102063.28;5045757;28;20071;-72
2022/05/05 03:13:11;;;;;;;9.23;4.63;;;;;;;5.95;85.62;102065.91;5062186;28;20767;-72
2022/05/05 03:15:36;;;;;;;9.07;4.90;;;;;;;5.92;86.03;102058.03;5063812;28;20647;-72
2022/05/05 03:18:02;;;;;;;7.85;4.75;;;;;;;5.90;85.79;102057.16;5063332;28;20028;-72
2022/05/05 03:20:28;;;;;;;10.20;5.43;;;;;;;5.89;86.08;102071.19;5064173;28;20058;-72
2022/05/05 03:22:53;;;;;;;7.25;4.40;;;;;;;5.88;86.21;102066.81;5043614;28;20043;-71
2022/05/05 03:25:19;;;;;;;8.07;4.82;;;;;;;5.88;86.37;102070.31;5029043;28;20796;-71
2022/05/05 03:27:45;;;;;;;6.97;4.40;;;;;;;5.87;86.49;102075.59;5029625;28;20150;-72
2022/05/05 03:30:11;;;;;;;11.77;5.28;;;;;;;5.83;86.43;102075.59;5063758;28;20574;-72
2022/05/05 03:32:36;;;;;;;7.32;4.60;;;;;;;5.82;86.73;102079.13;5044802;28;20036;-72
2022/05/05 03:35:02;;;;;;;8.57;4.70;;;;;;;5.78;86.61;102080.00;5063779;28;20027;-72
2022/05/05 03:37:30;;;;;;;9.55;5.32;;;;;;;5.77;86.54;102078.25;5064099;28;20028;-72
2022/05/05 03:39:56;;;;;;;9.15;4.82;;;;;;;5.74;87.30;102078.28;5062429;28;20024;-71
2022/05/05 03:42:21;;;;;;;9.13;4.90;;;;;;;5.71;87.26;102076.56;5063784;28;20403;-71
2022/05/05 03:44:47;;;;;;;8.18;5.00;;;;;;;5.69;87.31;102080.06;5064760;28;20071;-71
2022/05/05 03:47:12;;;;;;;8.98;5.03;;;;;;;5.66;87.72;102074.84;5046971;28;20503;-71
2022/05/05 03:49:38;;;;;;;8.93;5.22;;;;;;;5.64;87.60;102084.47;5045933;28;20063;-71
2022/05/05 03:52:04;;;;;;;9.38;5.00;;;;;;;5.63;88.39;102072.22;5064481;28;20036;-71
2022/05/05 03:54:30;;;;;;;7.82;5.25;;;;;;;5.62;88.10;102078.34;5064322;28;20040;-71
2022/05/05 03:56:55;;;;;;;9.60;4.90;;;;;;;5.60;88.61;102082.75;5063878;28;20490;-71
2022/05/05 03:59:23;;;;;;;8.82;5.10;;;;;;;5.58;89.33;102083.59;5063836;28;20683;-71
2022/05/05 04:01:49;;;;;;;7.38;4.70;;;;;;;5.57;89.02;102083.63;5040890;28;20032;-71
2022/05/05 04:04:16;;;;;;;9.38;5.57;;;;;;;5.55;89.09;102082.75;5062821;28;20628;-72
2022/05/05 04:06:42;;;;;;;7.50;4.65;;;;;;;5.52;89.04;102085.41;5061042;28;20132;-71
2022/05/05 04:09:07;;;;;;;7.88;5.32;;;;;;;5.49;89.60;102090.69;5063318;28;20024;-71
2022/05/05 04:11:34;;;;;;;10.05;5.20;;;;;;;5.46;89.45;102094.19;5016207;28;20428;-71
2022/05/05 04:13:59;;;;;;;10.45;5.10;;;;;;;5.44;89.50;102094.19;5061911;28;20029;-71
2022/05/05 04:16:25;;;;;;;9.57;5.20;;;;;;;5.45;89.84;102100.28;5030443;28;20476;-72
2022/05/05 04:18:50;;;;;;;9.32;4.65;;;;;;;5.44;90.21;102099.44;5063175;28;20463;-72
2022/05/05 04:21:16;;;;;;;8.32;5.00;;;;;;;5.46;90.30;102103.81;5044668;28;20038;-72
2022/05/05 04:23:41;;;;;;;10.52;5.40;;;;;;;5.45;89.90;102100.28;5063405;28;20504;-71
2022/05/05 04:26:09;;;;;;;7.70;5.05;;;;;;;5.41;90.29;102102.06;5063498;28;20036;-71
2022/05/05 04:28:35;;;;;;;8.90;5.30;;;;;;;5.41;90.46;102099.44;5063156;28;20747;-70
2022/05/05 04:31:00;;;;;;;8.23;5.25;;;;;;;5.39;90.10;102105.59;5061592;28;20486;-70
2022/05/05 04:33:25;;;;;;;11.18;5.50;;;;;;;5.37;90.79;102113.47;5062597;28;20029;-70
2022/05/05 04:35:51;;;;;;;9.65;5.35;;;;;;;5.36;91.00;102102.97;5063708;28;20615;-70
2022/05/05 04:38:16;;;;;;;7.90;4.95;;;;;;;5.38;90.68;102109.06;5042552;28;20039;-70
2022/05/05 04:40:42;;;;;;;10.75;5.63;;;;;;;5.40;90.80;102105.56;5043719;28;20027;-70
2022/05/05 04:43:08;;;;;;;8.20;5.32;;;;;;;5.43;90.81;102112.56;5063721;28;20040;-70
2022/05/05 04:45:33;;;;;;;8.77;5.60;;;;;;;5.44;91.02;102104.69;5044986;28;20174;-71
2022/05/05 04:47:59;;;;;;;9.25;5.40;;;;;;;5.47;90.77;102111.69;5030142;28;20783;-71
2022/05/05 04:50:24;;;;;;;8.07;5.45;;;;;;;5.50;91.43;102108.19;5041784;28;20225;-70
2022/05/05 04:52:51;;;;;;;8.05;5.50;;;;;;;5.53;90.68;102109.03;5045687;28;20415;-70
2022/05/05 04:55:17;;;;;;;7.68;5.47;;;;;;;5.57;91.14;102116.00;5067033;28;20031;-70
2022/05/05 04:57:42;;;;;;;10.23;5.47;;;;;;;5.62;90.93;102118.63;5049678;28;20062;-70
2022/05/05 05:00:09;;;;;;;8.32;5.53;;;;;;;5.68;91.02;102117.75;5066279;28;20493;-70
2022/05/05 05:02:35;;;;;;;9.02;5.38;;;;;;;5.73;91.09;102121.22;5047960;28;20020;-70
2022/05/05 05:05:00;;;;;;;11.85;6.03;;;;;;;5.81;91.86;102126.44;5066458;28;20787;-70
2022/05/05 05:07:26;;;;;;;9.68;5.25;;;;;;;5.87;91.42;102128.16;5066510;28;20027;-70
2022/05/05 05:09:51;;;;;;;7.18;4.82;;;;;;;5.93;91.12;102123.72;5064382;28;20584;-71
2022/05/05 05:12:17;;;;;;;8.60;5.55;;;;;;;5.98;91.36;102121.97;5048193;28;20036;-72
2022/05/05 05:14:42;;;;;;;9.50;5.25;;;;;;;6.05;91.01;102122.81;5066887;28;20046;-72
2022/05/05 05:17:08;;;;;;;8.25;5.30;;;;;;;6.13;91.50;102120.16;5067308;28;20130;-72
2022/05/05 05:19:33;;;;;;;9.45;5.60;;;;;;;6.22;91.57;102120.09;5067373;28;20121;-71
2022/05/05 05:21:59;;;;;;;9.20;5.32;;;;;;;6.33;91.34;102133.16;5065582;28;20032;-70
2022/05/05 05:24:25;;;;;;;9.02;5.60;;;;;;;6.44;91.89;102133.09;5067165;28;20047;-70
2022/05/05 05:26:50;;;;;;;8.88;5.75;;;;;;;6.55;91.65;102133.03;5066726;28;20566;-71
2022/05/05 05:29:16;;;;;;;14.45;5.78;;;;;;;6.61;91.50;102130.34;5066735;28;20051;-70
2022/05/05 05:31:41;;;;;;;8.73;5.05;;;;;;;6.69;90.95;102129.41;5066332;28;20055;-70
2022/05/05 05:34:07;;;;;;;9.23;6.13;;;;;;;6.76;90.59;102129.31;5066099;28;20037;-71
2022/05/05 05:36:32;;;;;;;9.25;5.72;;;;;;;6.83;90.78;102132.78;5066429;28;20020;-71
2022/05/05 05:38:58;;;;;;;7.82;5.22;;;;;;;6.88;90.63;102135.38;5066628;28;20028;-71
2022/05/05 05:41:23;;;;;;;9.43;5.90;;;;;;;6.94;90.21;102143.22;5046442;28;20105;-71
2022/05/05 05:43:48;;;;;;;9.45;5.85;;;;;;;6.99;90.49;102143.16;5064728;28;20057;-70
2022/05/05 05:46:14;;;;;;;8.40;5.45;;;;;;;7.05;90.44;102151.91;5047744;28;20281;-70
2022/05/05 05:48:40;;;;;;;8.90;5.63;;;;;;;7.10;90.67;102151.84;5065653;28;20040;-70
2022/05/05 05:51:06;;;;;;;7.90;5.25;;;;;;;7.18;90.76;102154.38;5064715;28;20040;-70
2022/05/05 05:53:32;;;;;;;10.43;6.07;;;;;;;7.26;90.43;102154.31;5046579;28;20047;-71
2022/05/05 05:55:58;;;;;;;10.13;5.65;;;;;;;7.33;90.43;102156.88;5065427;28;20741;-72
2022/05/05 05:58:23;;;;;;;11.75;5.60;;;;;;;7.40;90.35;102162.94;5032356;28;20044;-77
2022/05/05 06:00:49;;;;;;;10.10;5.30;;;;;;;7.47;89.93;102167.25;5021610;28;20046;-76
2022/05/05 06:06:00;;;;;;;9.10;5.13;;;;;;;7.63;89.54;102166.22;5065699;28;20042;-73
2022/05/05 06:08:25;;;;;;;6.95;5.03;;;;;;;7.71;89.50;102169.63;5065061;28;20040;-73
2022/05/05 06:10:51;;;;;;;10.45;5.88;;;;;;;7.76;89.53;102167.81;5067866;28;21426;-76
2022/05/05 06:13:16;;;;;;;9.45;5.32;;;;;;;7.85;89.25;102172.09;5064861;28;20667;-72
2022/05/05 06:15:42;;;;;;;7.55;5.55;;;;;;;7.90;89.15;102175.53;5066024;28;20028;-72
2022/05/05 06:18:07;;;;;;;11.70;5.80;;;;;;;7.97;89.49;102169.31;5065009;28;20111;-71
2022/05/05 06:20:33;;;;;;;11.38;6.47;;;;;;;8.06;88.65;102170.06;5044912;28;20043;-71
2022/05/05 06:22:59;;;;;;;9.18;5.43;;;;;;;8.12;89.08;102180.53;5062960;28;20040;-72
2022/05/05 06:25:25;;;;;;;9.52;5.47;;;;;;;8.17;88.45;102168.13;5065471;28;20038;-70
2022/05/05 06:27:51;;;;;;;11.55;5.85;;;;;;;8.24;88.62;102175.06;5061032;28;20044;-70
2022/05/05 06:30:17;;;;;;;8.55;5.70;;;;;;;8.31;88.79;102173.22;5064650;28;20113;-70
2022/05/05 06:32:44;;;;;;;11.15;5.93;;;;;;;8.36;88.24;102171.41;5034346;28;20478;-71
2022/05/05 06:35:10;;;;;;;13.98;6.43;;;;;;;8.39;88.24;102176.63;5064143;28;20514;-70
2022/05/05 06:37:36;;;;;;;10.90;6.43;;;;;;;8.48;88.50;102174.72;5062940;28;20032;-70
2022/05/05 06:40:03;;;;;;;9.75;6.18;;;;;;;8.56;88.85;102173.75;5040904;28;20730;-70
2022/05/05 06:42:31;;;;;;;10.68;5.72;;;;;;;8.63;87.82;102171.00;5046573;28;20775;-69
2022/05/05 06:44:57;;;;;;;8.25;5.90;;;;;;;8.70;88.22;102183.22;5033882;28;20032;-72
2022/05/05 06:47:24;;;;;;;9.15;6.03;;;;;;;8.74;87.75;102184.94;5044669;28;20028;-70
2022/05/05 06:49:49;;;;;;;10.95;6.05;;;;;;;8.82;87.83;102185.66;5051420;28;20039;-70
2022/05/05 06:52:15;;;;;;;11.85;5.32;;;;;;;8.88;87.84;102183.81;5050896;28;20036;-69
2022/05/05 06:54:40;;;;;;;9.55;5.65;;;;;;;8.93;88.22;102177.56;5052600;28;20584;-71
2022/05/05 06:57:06;;;;;;;8.48;6.00;;;;;;;8.98;88.10;102180.13;5030246;28;20029;-71
2022/05/05 06:59:31;;;;;;;7.82;5.80;;;;;;;9.06;88.52;102183.47;5047468;28;20581;-71
2022/05/05 07:02:01;;;;;;;7.57;5.70;;;;;;;9.18;87.86;102194.75;5064239;28;20042;-71
2022/05/05 07:07:13;;;;;;;10.55;5.88;;;;;;;9.40;87.74;102189.06;5041752;28;20481;-74
2022/05/05 07:12:29;;;;;;;9.35;5.35;;;;;;;9.64;87.04;102185.06;5048436;28;20035;-74
2022/05/05 07:14:56;;;;;;;9.35;5.43;;;;;;;9.71;86.25;102178.78;5061360;28;20020;-72
2022/05/05 07:17:23;;;;;;;11.18;5.95;;;;;;;9.81;85.87;102186.50;5040378;28;20039;-72
2022/05/05 07:19:48;;;;;;;12.98;6.50;;;;;;;9.91;85.92;102188.03;5062366;28;20043;-73
2022/05/05 07:22:14;;;;;;;9.30;5.45;;;;;;;10.01;85.84;102191.34;5063036;28;20028;-73
2022/05/05 07:24:39;;;;;;;7.63;5.82;;;;;;;10.09;85.24;102186.78;5063354;28;20115;-73
2022/05/05 07:27:05;;;;;;;8.77;5.75;;;;;;;10.17;84.79;102190.13;5062082;28;20400;-72
2022/05/05 07:29:31;;;;;;;9.50;5.70;;;;;;;10.26;85.27;102196.13;5045346;28;20039;-73
2022/05/05 07:31:58;;;;;;;10.90;5.32;;;;;;;10.35;84.13;102205.63;5061741;28;20125;-73
2022/05/05 07:34:23;;;;;;;7.75;4.85;;;;;;;10.40;84.05;102201.13;5064336;28;20032;-73
2022/05/05 07:36:49;;;;;;;11.18;5.13;;;;;;;10.46;83.53;102198.31;5046067;28;20033;-73
2022/05/05 07:39:15;;;;;;;9.02;5.65;;;;;;;10.53;83.46;102202.59;5064228;28;20113;-73
2022/05/05 07:41:41;;;;;;;6.63;4.97;;;;;;;10.63;83.36;102202.38;5044170;28;20051;-70
2022/05/05 07:44:07;;;;;;;9.02;5.30;;;;;;;10.73;83.14;102207.41;5045943;28;20049;-70
2022/05/05 07:46:35;;;;;;;8.68;5.78;;;;;;;10.85;82.76;102205.38;5064677;28;20380;-71
2022/05/05 07:49:01;;;;;;;9.40;5.35;;;;;;;10.96;82.82;102208.59;5064662;28;20401;-70
2022/05/05 07:51:28;;;;;;;7.28;5.38;;;;;;;11.08;82.27;102201.25;5060437;28;20020;-71
2022/05/05 07:56:39;;;;;;;10.57;5.85;;;;;;;11.39;81.98;102211.91;5048626;28;20078;-73
2022/05/05 07:59:04;;;;;;;9.05;5.50;;;;;;;11.51;81.66;102215.16;5032407;28;20048;-72
2022/05/05 08:01:30;;;;;;;9.13;5.25;;;;;;;11.63;81.47;102211.28;5045640;28;20613;-73
2022/05/05 08:03:55;;;;;;;10.10;5.28;;;;;;;11.83;80.79;102221.34;5045690;28;20123;-72
2022/05/05 08:06:21;;;;;;;7.95;5.32;;;;;;;11.96;80.10;102216.53;5013541;28;20566;-72
2022/05/05 08:08:47;;;;;;;7.78;5.10;;;;;;;12.13;79.79;102218.72;5064201;28;20601;-72
2022/05/05 08:11:12;;;;;;;7.85;5.30;;;;;;;12.22;79.01;102229.06;5063541;28;20643;-72
2022/05/05 08:13:38;;;;;;;8.00;4.93;;;;;;;12.31;78.97;102227.06;5027970;28;20537;-72
2022/05/05 08:16:03;;;;;;;8.23;4.90;;;;;;;12.41;78.43;102230.31;5043967;28;20487;-72
2022/05/05 08:18:29;;;;;;;6.97;4.47;;;;;;;12.55;77.94;102224.53;5062695;28;20036;-72
2022/05/05 08:20:54;;;;;;;5.95;4.63;;;;;;;12.65;77.46;102225.13;5050955;28;20028;-72
2022/05/05 08:23:20;;;;;;;6.28;4.00;;;;;;;12.80;77.11;102221.94;5042487;28;20029;-73
2022/05/05 08:28:30;;;;;;;6.68;4.00;;;;;;;13.09;75.08;102233.41;5066186;28;20041;-72
2022/05/05 08:30:59;;;;;;;7.38;4.82;;;;;;;13.21;75.16;102234.78;5049160;28;20032;-72
2022/05/05 08:33:27;;;;;;;5.45;4.20;;;;;;;13.39;74.52;102238.59;5066086;28;20036;-72
2022/05/05 08:35:56;;;;;;;4.82;3.70;;;;;;;13.50;72.75;102240.91;5068101;28;20032;-70
2022/05/05 08:38:22;;;;;;;6.65;3.88;;;;;;;13.61;72.99;102229.88;5067369;28;20023;-70
2022/05/05 08:40:48;;;;;;;5.25;4.40;;;;;;;13.74;72.94;102240.94;5047367;28;20051;-70
2022/05/05 08:43:13;;;;;;;5.38;3.58;;;;;;;13.93;72.65;102230.47;5067170;28;20589;-71
2022/05/05 08:45:39;;;;;;;5.80;3.65;;;;;;;14.11;72.15;102236.03;5066686;28;20147;-70
2022/05/05 08:48:07;;;;;;;4.95;3.70;;;;;;;14.31;72.03;102239.69;5067922;28;20032;-74
2022/05/05 08:50:37;;;;;;;8.02;3.88;;;;;;;14.51;71.68;102237.13;5048720;28;20055;-74
2022/05/05 08:53:04;;;;;;;7.68;4.13;;;;;;;14.69;69.77;102236.44;5052142;28;20434;-70
2022/05/05 08:55:31;;;;;;;4.22;3.20;;;;;;;14.82;68.43;102242.19;5064389;28;20162;-70
2022/05/05 08:57:57;;;;;;;6.90;4.10;;;;;;;14.85;68.33;102250.03;5066255;28;20027;-70
2022/05/05 09:00:24;;;;;;;5.25;3.50;;;;;;;15.00;68.72;102248.53;5066238;28;20119;-69
2022/05/05 09:02:58;;;;;;;6.40;3.55;;;;;;;15.12;67.73;102256.03;5065010;28;20047;-70
2022/05/05 09:06:01;;;;;;;6.93;3.25;;;;;;;15.25;65.89;102251.03;5067172;28;20036;-70
2022/05/05 09:08:31;;;;;;;4.45;3.25;;;;;;;15.31;67.52;102260.59;4986239;28;20525;-70
2022/05/05 09:11:05;;;;;;;4.90;3.15;;;;;;;15.46;67.26;102259.91;5052297;28;20044;-70
2022/05/05 09:13:34;;;;;;;2.92;2.70;;;;;;;15.45;67.79;102267.97;5066053;28;20025;-69
2022/05/05 09:16:03;;;;;;;3.95;2.45;;;;;;;15.46;66.59;102262.59;5065685;28;20032;-69
2022/05/05 09:18:33;;;;;;;4.82;3.03;;;;;;;15.44;65.53;102261.78;5048540;28;20036;-70
2022/05/05 09:21:04;;;;;;;4.38;3.00;;;;;;;15.38;65.19;102263.84;5049450;28;20023;-71
2022/05/05 09:23:32;;;;;;;3.83;3.00;;;;;;;15.35;64.92;102264.84;5066940;28;20032;-70
2022/05/05 09:25:58;;;;;;;4.07;2.53;;;;;;;15.33;65.47;102256.94;5062695;28;20040;-70
2022/05/05 09:28:28;;;;;;;4.78;2.90;;;;;;;15.32;65.55;102256.97;5066955;28;20028;-70
2022/05/05 09:30:54;;;;;;;3.17;2.55;;;;;;;15.28;65.08;102277.59;5032250;28;20384;-71
2022/05/05 09:33:38;;;;;;;3.67;2.45;;;;;;;15.25;60.98;102274.19;5045897;28;20063;-71
2022/05/05 09:36:14;;;;;;;3.95;2.58;;;;;;;15.38;63.58;102267.41;5064406;28;20560;-70
2022/05/05 09:39:03;;;;;;;4.70;3.22;;;;;;;15.56;61.78;102272.84;5062701;28;20071;-69
2022/05/05 09:41:33;;;;;;;4.68;3.00;;;;;;;15.77;62.72;102278.16;5064886;28;20039;-71
2022/05/05 09:44:00;;;;;;;5.53;2.80;;;;;;;15.77;62.57;102276.38;5012970;28;20595;-70
2022/05/05 09:46:28;;;;;;;2.95;2.58;;;;;;;15.89;62.37;102280.28;5062682;28;20036;-70
2022/05/05 09:49:07;;;;;;;4.40;2.88;;;;;;;16.11;60.51;102279.34;5062126;28;20029;-72
2022/05/05 09:57:39;;;;;;;3.95;3.13;;;;;;;16.35;59.70;102280.00;5065817;28;20157;-72
2022/05/05 09:57:40;;;;;;;6.80;3.70;;;;;;;16.84;60.38;102275.91;5051405;28;20067;-72
2022/05/05 10:00:44;;;;;;;5.78;3.58;;;;;;;16.99;59.49;102278.75;5038067;28;20166;-73
2022/05/05 10:06:03;;;;;;;5.68;3.63;;;;;;;17.28;59.91;102279.13;5060701;28;20039;-73
2022/05/05 10:08:48;;;;;;;5.20;3.30;;;;;;;17.24;58.02;102283.75;5049568;28;21051;-72
2022/05/05 10:11:39;;;;;;;4.18;3.25;;;;;;;17.22;57.55;102283.84;5052902;28;20123;-72
2022/05/05 10:14:06;;;;;;;5.93;3.38;;;;;;;17.20;58.56;102277.69;5047986;28;20212;-71
2022/05/05 10:16:31;;;;;;;5.78;3.03;;;;;;;17.28;58.22;102279.13;5018334;28;20035;-77
2022/05/05 10:19:03;;;;;;;5.32;3.95;;;;;;;17.22;55.38;102288.34;5032340;28;20098;-78
2022/05/05 10:21:32;;;;;;;4.32;2.95;;;;;;;17.17;58.12;102287.69;5048830;28;20535;-77
2022/05/05 10:24:22;;;;;;;4.80;3.80;;;;;;;17.26;57.05;102289.03;5060739;28;20035;-71
2022/05/05 10:26:50;;;;;;;7.05;4.18;;;;;;;17.38;58.40;102286.59;5043362;28;20035;-72
2022/05/05 10:29:31;;;;;;;6.80;5.07;;;;;;;17.45;55.38;102294.31;5044764;28;20036;-71
2022/05/05 10:32:18;;;;;;;7.85;5.78;;;;;;;17.40;55.67;102289.19;5065939;28;20065;-71
2022/05/05 10:35:05;;;;;;;10.68;6.25;;;;;;;17.47;58.29;102290.59;5051057;28;20668;-71
2022/05/05 10:37:32;;;;;;;9.75;6.32;;;;;;;17.43;56.85;102283.66;5065620;28;20036;-71
2022/05/05 10:40:10;;;;;;;11.25;6.88;;;;;;;17.27;57.58;102283.59;5047624;28;20036;-71
2022/05/05 10:42:41;;;;;;;7.32;5.80;;;;;;;17.18;57.97;102290.31;5065558;28;20035;-71
2022/05/05 10:45:13;;;;;;;8.88;6.13;;;;;;;17.29;56.86;102291.56;5047465;28;20079;-72
2022/05/05 10:48:06;;;;;;;7.18;5.75;;;;;;;17.23;56.92;102288.22;5065995;28;20063;-71
2022/05/05 10:50:39;;;;;;;;;;;;;;;17.15;54.86;102297.63;5062591;28;20939;-71
2022/05/05 10:53:06;;;;;;;7.57;4.85;;;;;;;17.12;57.29;102292.41;5064218;28;19978;-72
2022/05/05 10:55:32;;;;;;;7.38;5.13;;;;;;;17.05;57.33;102294.53;5027530;28;21691;-72
2022/05/05 10:57:57;;;;;;;8.35;5.40;;;;;;;17.15;58.03;102295.78;5063605;28;20040;-72
2022/05/05 11:00:24;;;;;;;7.10;4.60;;;;;;;17.27;58.28;102298.81;5064392;28;20067;-71
2022/05/05 11:02:58;;;;;;;7.65;5.18;;;;;;;17.37;55.72;102300.03;5064317;28;20052;-71
2022/05/05 11:05:27;;;;;;;8.82;5.40;;;;;;;17.44;57.74;102304.13;5064939;28;20048;-71
2022/05/05 11:07:53;;;;;;;8.93;5.45;;;;;;;17.62;58.44;102299.66;5026904;28;20104;-72
2022/05/05 11:13:40;;;;;;;8.82;5.35;;;;;;;17.94;58.06;102298.00;4984752;28;20049;-72
2022/05/05 11:22:14;;;;;;;8.25;5.10;;;;;;;18.04;56.54;102302.78;5049456;28;20039;-72
2022/05/05 11:24:44;;;;;;;9.77;5.50;;;;;;;18.10;56.35;102303.44;5065772;28;20041;-72
2022/05/05 11:27:11;;;;;;;12.25;5.30;;;;;;;18.10;55.43;102303.44;5050603;28;20036;-72
2022/05/05 11:29:37;;;;;;;9.02;6.07;;;;;;;18.08;56.08;102306.19;5065399;28;20166;-72
2022/05/05 11:32:05;;;;;;;9.18;5.68;;;;;;;18.13;55.99;102301.47;5064915;28;20028;-72
2022/05/05 11:34:33;;;;;;;10.05;6.03;;;;;;;18.34;55.93;102308.41;5046812;28;20032;-72
2022/05/05 11:37:01;;;;;;;9.70;5.55;;;;;;;18.49;55.26;102309.34;5046032;28;20028;-72
2022/05/05 11:39:31;;;;;;;8.88;5.20;;;;;;;18.45;55.05;102308.66;5045404;28;20036;-72
2022/05/05 11:42:01;;;;;;;9.45;5.53;;;;;;;18.32;54.81;102312.03;5045513;28;20115;-73
2022/05/05 11:44:28;;;;;;;9.57;6.22;;;;;;;18.19;54.67;102302.94;5046510;28;20780;-72
2022/05/05 11:46:54;;;;;;;8.95;5.28;;;;;;;18.27;55.74;102311.44;5029923;28;20027;-72
2022/05/05 11:49:20;;;;;;;9.23;5.93;;;;;;;18.38;55.88;102305.47;5035732;28;20040;-72
2022/05/05 11:51:46;;;;;;;7.43;5.10;;;;;;;18.42;55.00;102308.84;5064256;28;20047;-72
2022/05/05 11:54:17;;;;;;;9.10;5.53;;;;;;;18.39;54.78;102309.00;5063315;28;20141;-72
2022/05/05 11:56:46;;;;;;;8.98;6.00;;;;;;;18.34;54.15;102306.59;5044506;28;20127;-72
2022/05/05 12:02:05;;;;;;;8.98;5.68;;;;;;;18.40;55.16;102303.56;5051052;28;20036;-71
2022/05/05 12:04:32;;;;;;;10.43;5.57;;;;;;;18.25;55.49;102305.28;5055142;28;20369;-73
2022/05/05 12:06:59;;;;;;;7.75;5.47;;;;;;;18.26;55.75;102293.59;5048840;28;20404;-72
2022/05/05 12:09:25;;;;;;;9.80;5.30;;;;;;;18.41;55.52;102296.41;5049085;28;21843;-72
2022/05/05 12:11:51;;;;;;;8.90;5.53;;;;;;;18.51;54.03;102302.13;5068582;28;20055;-72
2022/05/05 12:14:20;;;;;;;10.02;5.72;;;;;;;18.52;55.49;102304.69;5050795;28;20119;-74
2022/05/05 12:16:45;;;;;;;11.75;6.60;;;;;;;18.57;56.36;102291.91;5047995;28;20037;-72